Mount Vernon, Illinois
Current Conditions -  °F | °C
As of 12:35 PM on Saturday 20 Dec 2014 (Local Time) from KMVN Reporting Station
Overcast Overcast  
Wind Chill: 39°   Ceiling: 7000
Heat Index: 39°   Visibility: 10mi
Dew Point: 27°   Wind: 3mph
Humidity: 61%   Direction: 130°SE
Pressure: 30.27"   Gusts: NA
Location:  38.32°N, 88.9°W
Report Text: KMVN 201835Z AUTO 13003KT 10SM SCT043 OVC070 04/M03 A3027 RMK AO1
Loading
Personal Weather Stations






























Interactive Weather Map New forecast layout! Learn more

10-Day Weather Forecast

Advertisements
Track Severe Weather on mobile